sensor_id;sensor_type;location;lat;lon;timestamp;pressure;altitude;pressure_sealevel;temperature;humidity
26937;BME280;14495;48.116;11.676;2023-07-29T00:00:51;95350.44;;;15.11;100.00
26937;BME280;14495;48.116;11.676;2023-07-29T00:03:17;95353.50;;;15.16;100.00
26937;BME280;14495;48.116;11.676;2023-07-29T00:05:42;95348.97;;;15.18;100.00
26937;BME280;14495;48.116;11.676;2023-07-29T00:08:08;95344.53;;;15.18;100.00
26937;BME280;14495;48.116;11.676;2023-07-29T00:10:36;95341.06;;;15.18;100.00
26937;BME280;14495;48.116;11.676;2023-07-29T00:13:02;95339.38;;;15.17;100.00
26937;BME280;14495;48.116;11.676;2023-07-29T00:15:28;95337.00;;;15.14;100.00
26937;BME280;14495;48.116;11.676;2023-07-29T00:17:53;95338.50;;;15.06;100.00
26937;BME280;14495;48.116;11.676;2023-07-29T00:20:19;95339.78;;;15.12;100.00
26937;BME280;14495;48.116;11.676;2023-07-29T00:22:44;95340.75;;;15.11;100.00
26937;BME280;14495;48.116;11.676;2023-07-29T00:25:09;95335.72;;;15.08;100.00
26937;BME280;14495;48.116;11.676;2023-07-29T00:27:35;95339.34;;;15.07;100.00
26937;BME280;14495;48.116;11.676;2023-07-29T00:30:00;95331.31;;;15.08;100.00
26937;BME280;14495;48.116;11.676;2023-07-29T00:32:29;95328.94;;;15.05;100.00
26937;BME280;14495;48.116;11.676;2023-07-29T00:34:54;95325.84;;;15.00;100.00
26937;BME280;14495;48.116;11.676;2023-07-29T00:37:20;95331.13;;;15.00;100.00
26937;BME280;14495;48.116;11.676;2023-07-29T00:39:45;95333.88;;;14.99;100.00
26937;BME280;14495;48.116;11.676;2023-07-29T00:42:10;95329.47;;;14.99;100.00
26937;BME280;14495;48.116;11.676;2023-07-29T00:44:36;95325.16;;;14.98;100.00
26937;BME280;14495;48.116;11.676;2023-07-29T00:47:02;95323.81;;;15.04;100.00
26937;BME280;14495;48.116;11.676;2023-07-29T00:49:29;95320.63;;;15.10;100.00
26937;BME280;14495;48.116;11.676;2023-07-29T00:51:58;95332.03;;;15.11;100.00
26937;BME280;14495;48.116;11.676;2023-07-29T00:54:23;95331.38;;;15.18;100.00
26937;BME280;14495;48.116;11.676;2023-07-29T00:56:49;95330.25;;;15.21;100.00
26937;BME280;14495;48.116;11.676;2023-07-29T00:59:15;95331.81;;;15.23;100.00
26937;BME280;14495;48.116;11.676;2023-07-29T01:01:40;95321.00;;;15.26;100.00
26937;BME280;14495;48.116;11.676;2023-07-29T01:04:05;95325.06;;;15.31;100.00
26937;BME280;14495;48.116;11.676;2023-07-29T01:09:04;95325.19;;;15.29;100.00
26937;BME280;14495;48.116;11.676;2023-07-29T01:14:28;95327.25;;;15.25;100.00
26937;BME280;14495;48.116;11.676;2023-07-29T01:17:08;95318.50;;;15.25;100.00
26937;BME280;14495;48.116;11.676;2023-07-29T01:20:07;95315.16;;;15.23;100.00
26937;BME280;14495;48.116;11.676;2023-07-29T01:22:36;95313.31;;;15.14;100.00
26937;BME280;14495;48.116;11.676;2023-07-29T01:25:02;95310.00;;;15.12;100.00
26937;BME280;14495;48.116;11.676;2023-07-29T01:27:29;95309.81;;;15.03;100.00
26937;BME280;14495;48.116;11.676;2023-07-29T01:29:55;95302.88;;;15.02;100.00
26937;BME280;14495;48.116;11.676;2023-07-29T01:35:18;95299.81;;;14.97;100.00
26937;BME280;14495;48.116;11.676;2023-07-29T01:37:49;95300.44;;;14.89;100.00
26937;BME280;14495;48.116;11.676;2023-07-29T01:40:17;95308.63;;;14.86;100.00
26937;BME280;14495;48.116;11.676;2023-07-29T01:42:43;95295.72;;;14.83;100.00
26937;BME280;14495;48.116;11.676;2023-07-29T01:45:10;95302.09;;;14.81;100.00
26937;BME280;14495;48.116;11.676;2023-07-29T01:47:36;95298.75;;;14.79;100.00
26937;BME280;14495;48.116;11.676;2023-07-29T01:50:03;95295.97;;;14.80;100.00
26937;BME280;14495;48.116;11.676;2023-07-29T01:52:29;95299.72;;;14.78;100.00
26937;BME280;14495;48.116;11.676;2023-07-29T01:54:54;95294.97;;;14.72;100.00
26937;BME280;14495;48.116;11.676;2023-07-29T01:57:22;95299.66;;;14.68;100.00
26937;BME280;14495;48.116;11.676;2023-07-29T01:59:47;95294.13;;;14.71;100.00
26937;BME280;14495;48.116;11.676;2023-07-29T02:02:13;95297.16;;;14.66;100.00
26937;BME280;14495;48.116;11.676;2023-07-29T02:04:38;95294.38;;;14.68;100.00
26937;BME280;14495;48.116;11.676;2023-07-29T02:07:03;95299.06;;;14.64;100.00
26937;BME280;14495;48.116;11.676;2023-07-29T02:09:31;95294.50;;;14.66;100.00
26937;BME280;14495;48.116;11.676;2023-07-29T02:11:57;95285.81;;;14.66;100.00
26937;BME280;14495;48.116;11.676;2023-07-29T02:14:22;95288.56;;;14.64;100.00
26937;BME280;14495;48.116;11.676;2023-07-29T02:16:48;95281.63;;;14.63;100.00
26937;BME280;14495;48.116;11.676;2023-07-29T02:19:14;95276.63;;;14.60;100.00
26937;BME280;14495;48.116;11.676;2023-07-29T02:21:40;95282.72;;;14.61;100.00
26937;BME280;14495;48.116;11.676;2023-07-29T02:24:05;95281.28;;;14.57;100.00
26937;BME280;14495;48.116;11.676;2023-07-29T02:26:30;95284.84;;;14.56;100.00
26937;BME280;14495;48.116;11.676;2023-07-29T02:28:56;95279.03;;;14.52;100.00
26937;BME280;14495;48.116;11.676;2023-07-29T02:31:22;95281.66;;;14.52;100.00
26937;BME280;14495;48.116;11.676;2023-07-29T02:33:48;95277.09;;;14.54;100.00
26937;BME280;14495;48.116;11.676;2023-07-29T02:36:15;95278.56;;;14.47;100.00
26937;BME280;14495;48.116;11.676;2023-07-29T02:38:41;95282.06;;;14.47;100.00
26937;BME280;14495;48.116;11.676;2023-07-29T02:41:08;95298.72;;;14.37;100.00
26937;BME280;14495;48.116;11.676;2023-07-29T02:43:35;95299.41;;;14.39;100.00
26937;BME280;14495;48.116;11.676;2023-07-29T02:46:01;95297.50;;;14.41;100.00
26937;BME280;14495;48.116;11.676;2023-07-29T02:48:27;95298.31;;;14.41;100.00
26937;BME280;14495;48.116;11.676;2023-07-29T02:50:53;95309.69;;;14.42;100.00
26937;BME280;14495;48.116;11.676;2023-07-29T02:53:18;95304.81;;;14.58;100.00
26937;BME280;14495;48.116;11.676;2023-07-29T02:55:46;95300.41;;;14.59;100.00
26937;BME280;14495;48.116;11.676;2023-07-29T02:58:11;95293.47;;;14.58;100.00
26937;BME280;14495;48.116;11.676;2023-07-29T03:00:37;95294.88;;;14.62;100.00
26937;BME280;14495;48.116;11.676;2023-07-29T03:03:02;95299.91;;;14.65;100.00
26937;BME280;14495;48.116;11.676;2023-07-29T03:05:28;95296.81;;;14.60;100.00
26937;BME280;14495;48.116;11.676;2023-07-29T03:07:53;95290.59;;;14.61;100.00
26937;BME280;14495;48.116;11.676;2023-07-29T03:10:19;95283.53;;;14.61;100.00
26937;BME280;14495;48.116;11.676;2023-07-29T03:12:44;95287.16;;;14.60;100.00
26937;BME280;14495;48.116;11.676;2023-07-29T03:15:10;95282.59;;;14.62;100.00
26937;BME280;14495;48.116;11.676;2023-07-29T03:17:35;95283.53;;;14.61;100.00
26937;BME280;14495;48.116;11.676;2023-07-29T03:20:00;95280.09;;;14.61;100.00
26937;BME280;14495;48.116;11.676;2023-07-29T03:22:26;95279.00;;;14.63;100.00
26937;BME280;14495;48.116;11.676;2023-07-29T03:24:51;95278.88;;;14.65;100.00
26937;BME280;14495;48.116;11.676;2023-07-29T03:27:16;95281.63;;;14.63;100.00
26937;BME280;14495;48.116;11.676;2023-07-29T03:29:45;95292.97;;;14.64;100.00
26937;BME280;14495;48.116;11.676;2023-07-29T03:32:11;95282.31;;;14.65;100.00
26937;BME280;14495;48.116;11.676;2023-07-29T03:34:36;95279.31;;;14.70;100.00
26937;BME280;14495;48.116;11.676;2023-07-29T03:37:02;95270.31;;;14.73;100.00
26937;BME280;14495;48.116;11.676;2023-07-29T03:39:27;95259.09;;;14.71;100.00
26937;BME280;14495;48.116;11.676;2023-07-29T03:41:52;95269.75;;;14.69;100.00
26937;BME280;14495;48.116;11.676;2023-07-29T03:44:18;95272.78;;;14.64;100.00
26937;BME280;14495;48.116;11.676;2023-07-29T03:46:44;95279.69;;;14.65;100.00
26937;BME280;14495;48.116;11.676;2023-07-29T03:49:10;95264.38;;;14.71;100.00
26937;BME280;14495;48.116;11.676;2023-07-29T03:51:35;95272.00;;;14.74;100.00
26937;BME280;14495;48.116;11.676;2023-07-29T03:54:01;95269.25;;;14.75;100.00
26937;BME280;14495;48.116;11.676;2023-07-29T03:56:26;95271.03;;;14.75;100.00
26937;BME280;14495;48.116;11.676;2023-07-29T03:58:52;95271.47;;;14.80;100.00
26937;BME280;14495;48.116;11.676;2023-07-29T04:01:18;95276.50;;;14.83;100.00
26937;BME280;14495;48.116;11.676;2023-07-29T04:03:45;95277.34;;;14.93;100.00
26937;BME280;14495;48.116;11.676;2023-07-29T04:06:11;95280.44;;;14.98;100.00
26937;BME280;14495;48.116;11.676;2023-07-29T04:08:39;95282.13;;;14.99;100.00
26937;BME280;14495;48.116;11.676;2023-07-29T04:11:06;95272.97;;;15.03;100.00
26937;BME280;14495;48.116;11.676;2023-07-29T04:13:31;95263.00;;;14.97;100.00
26937;BME280;14495;48.116;11.676;2023-07-29T04:15:59;95263.00;;;14.97;100.00
26937;BME280;14495;48.116;11.676;2023-07-29T04:18:24;95262.75;;;15.10;100.00
26937;BME280;14495;48.116;11.676;2023-07-29T04:20:49;95250.84;;;15.16;100.00
26937;BME280;14495;48.116;11.676;2023-07-29T04:23:15;95244.19;;;15.12;100.00
26937;BME280;14495;48.116;11.676;2023-07-29T04:25:43;95237.69;;;15.16;100.00
26937;BME280;14495;48.116;11.676;2023-07-29T04:28:08;95233.41;;;15.15;100.00
26937;BME280;14495;48.116;11.676;2023-07-29T04:30:34;95232.84;;;15.11;100.00
26937;BME280;14495;48.116;11.676;2023-07-29T04:32:59;95223.69;;;15.05;100.00
26937;BME280;14495;48.116;11.676;2023-07-29T04:35:24;95233.25;;;15.06;100.00
26937;BME280;14495;48.116;11.676;2023-07-29T04:37:50;95227.03;;;15.07;100.00
26937;BME280;14495;48.116;11.676;2023-07-29T04:40:15;95230.19;;;15.01;100.00
26937;BME280;14495;48.116;11.676;2023-07-29T04:42:41;95229.66;;;15.07;100.00
26937;BME280;14495;48.116;11.676;2023-07-29T04:45:06;95227.91;;;15.18;100.00
26937;BME280;14495;48.116;11.676;2023-07-29T04:47:32;95234.53;;;15.12;100.00
26937;BME280;14495;48.116;11.676;2023-07-29T04:49:57;95230.66;;;15.16;100.00
26937;BME280;14495;48.116;11.676;2023-07-29T04:52:22;95229.28;;;15.22;100.00
26937;BME280;14495;48.116;11.676;2023-07-29T04:54:48;95234.81;;;15.19;100.00
26937;BME280;14495;48.116;11.676;2023-07-29T04:57:13;95236.06;;;15.24;100.00
26937;BME280;14495;48.116;11.676;2023-07-29T04:59:39;95230.44;;;15.39;100.00
26937;BME280;14495;48.116;11.676;2023-07-29T05:02:09;95225.50;;;15.55;100.00
26937;BME280;14495;48.116;11.676;2023-07-29T05:04:34;95217.03;;;15.71;100.00
26937;BME280;14495;48.116;11.676;2023-07-29T05:06:59;95213.78;;;15.98;100.00
26937;BME280;14495;48.116;11.676;2023-07-29T05:09:25;95201.84;;;16.23;100.00
26937;BME280;14495;48.116;11.676;2023-07-29T05:11:50;95204.81;;;16.58;100.00
26937;BME280;14495;48.116;11.676;2023-07-29T05:14:17;95205.84;;;16.94;100.00
26937;BME280;14495;48.116;11.676;2023-07-29T05:16:43;95194.47;;;17.22;100.00
26937;BME280;14495;48.116;11.676;2023-07-29T05:19:09;95191.03;;;17.39;100.00
26937;BME280;14495;48.116;11.676;2023-07-29T05:21:35;95182.41;;;17.65;100.00
26937;BME280;14495;48.116;11.676;2023-07-29T05:24:02;95181.13;;;17.69;100.00
26937;BME280;14495;48.116;11.676;2023-07-29T05:26:28;95179.53;;;17.76;100.00
26937;BME280;14495;48.116;11.676;2023-07-29T05:28:53;95170.34;;;17.98;100.00
26937;BME280;14495;48.116;11.676;2023-07-29T05:31:22;95169.91;;;18.03;100.00
26937;BME280;14495;48.116;11.676;2023-07-29T05:33:47;95174.63;;;17.81;100.00
26937;BME280;14495;48.116;11.676;2023-07-29T05:36:15;95175.25;;;18.11;100.00
26937;BME280;14495;48.116;11.676;2023-07-29T05:38:41;95175.09;;;18.12;100.00
26937;BME280;14495;48.116;11.676;2023-07-29T05:41:06;95173.13;;;18.14;100.00
26937;BME280;14495;48.116;11.676;2023-07-29T05:43:31;95180.31;;;18.04;100.00
26937;BME280;14495;48.116;11.676;2023-07-29T05:45:59;95193.22;;;18.25;100.00
26937;BME280;14495;48.116;11.676;2023-07-29T05:48:24;95193.75;;;18.29;100.00
26937;BME280;14495;48.116;11.676;2023-07-29T05:50:52;95201.31;;;18.24;100.00
26937;BME280;14495;48.116;11.676;2023-07-29T05:53:17;95203.72;;;18.61;100.00
26937;BME280;14495;48.116;11.676;2023-07-29T05:55:43;95193.94;;;18.62;100.00
26937;BME280;14495;48.116;11.676;2023-07-29T05:58:10;95188.88;;;18.68;100.00
26937;BME280;14495;48.116;11.676;2023-07-29T06:00:36;95204.78;;;18.50;100.00
26937;BME280;14495;48.116;11.676;2023-07-29T06:03:01;95201.31;;;18.24;100.00
26937;BME280;14495;48.116;11.676;2023-07-29T06:05:26;95201.44;;;18.22;100.00
26937;BME280;14495;48.116;11.676;2023-07-29T06:07:52;95234.63;;;17.99;100.00
26937;BME280;14495;48.116;11.676;2023-07-29T06:10:17;95266.81;;;17.66;100.00
26937;BME280;14495;48.116;11.676;2023-07-29T06:12:46;95299.13;;;17.50;100.00
26937;BME280;14495;48.116;11.676;2023-07-29T06:15:11;95261.59;;;17.19;100.00
26937;BME280;14495;48.116;11.676;2023-07-29T06:17:38;95249.91;;;16.84;100.00
26937;BME280;14495;48.116;11.676;2023-07-29T06:20:04;95227.72;;;16.57;100.00
26937;BME280;14495;48.116;11.676;2023-07-29T06:22:29;95224.50;;;16.63;100.00
26937;BME280;14495;48.116;11.676;2023-07-29T06:25:02;95224.81;;;16.60;100.00
26937;BME280;14495;48.116;11.676;2023-07-29T06:27:27;95216.59;;;16.63;100.00
26937;BME280;14495;48.116;11.676;2023-07-29T06:29:53;95208.22;;;16.78;100.00
26937;BME280;14495;48.116;11.676;2023-07-29T06:32:18;95215.44;;;16.95;100.00
26937;BME280;14495;48.116;11.676;2023-07-29T06:34:44;95204.56;;;17.08;100.00
26937;BME280;14495;48.116;11.676;2023-07-29T06:37:09;95217.03;;;17.16;100.00
26937;BME280;14495;48.116;11.676;2023-07-29T06:39:34;95221.22;;;17.36;100.00
26937;BME280;14495;48.116;11.676;2023-07-29T06:42:00;95228.84;;;17.39;100.00
26937;BME280;14495;48.116;11.676;2023-07-29T06:44:27;95232.88;;;17.44;100.00
26937;BME280;14495;48.116;11.676;2023-07-29T06:46:52;95236.41;;;17.52;100.00
26937;BME280;14495;48.116;11.676;2023-07-29T06:49:18;95243.50;;;17.52;100.00
26937;BME280;14495;48.116;11.676;2023-07-29T06:51:45;95249.88;;;17.59;100.00
26937;BME280;14495;48.116;11.676;2023-07-29T06:54:10;95265.94;;;17.48;100.00
26937;BME280;14495;48.116;11.676;2023-07-29T06:56:36;95283.41;;;17.21;100.00
26937;BME280;14495;48.116;11.676;2023-07-29T06:59:02;95275.09;;;17.16;100.00
26937;BME280;14495;48.116;11.676;2023-07-29T07:01:30;95295.16;;;16.99;100.00
26937;BME280;14495;48.116;11.676;2023-07-29T07:03:55;95303.22;;;16.88;100.00
26937;BME280;14495;48.116;11.676;2023-07-29T07:06:23;95315.16;;;16.82;100.00
26937;BME280;14495;48.116;11.676;2023-07-29T07:08:51;95319.03;;;16.78;100.00
26937;BME280;14495;48.116;11.676;2023-07-29T07:11:18;95316.69;;;16.75;100.00
26937;BME280;14495;48.116;11.676;2023-07-29T07:13:43;95300.03;;;16.65;100.00
26937;BME280;14495;48.116;11.676;2023-07-29T07:16:09;95305.06;;;16.68;100.00
26937;BME280;14495;48.116;11.676;2023-07-29T07:18:34;95309.88;;;16.72;100.00
26937;BME280;14495;48.116;11.676;2023-07-29T07:20:59;95297.13;;;16.68;100.00
26937;BME280;14495;48.116;11.676;2023-07-29T07:23:25;95292.66;;;16.78;100.00
26937;BME280;14495;48.116;11.676;2023-07-29T07:25:50;95299.31;;;16.82;100.00
26937;BME280;14495;48.116;11.676;2023-07-29T07:28:17;95296.84;;;16.90;100.00
26937;BME280;14495;48.116;11.676;2023-07-29T07:30:42;95290.13;;;17.06;100.00
26937;BME280;14495;48.116;11.676;2023-07-29T07:33:08;95280.84;;;17.02;100.00
26937;BME280;14495;48.116;11.676;2023-07-29T07:35:34;95276.47;;;17.20;100.00
26937;BME280;14495;48.116;11.676;2023-07-29T07:37:59;95273.16;;;17.18;100.00
26937;BME280;14495;48.116;11.676;2023-07-29T07:40:31;95275.88;;;17.26;100.00
26937;BME280;14495;48.116;11.676;2023-07-29T07:43:06;95261.38;;;17.40;100.00
26937;BME280;14495;48.116;11.676;2023-07-29T07:45:35;95253.81;;;17.45;100.00
26937;BME280;14495;48.116;11.676;2023-07-29T07:48:01;95249.28;;;17.65;100.00
26937;BME280;14495;48.116;11.676;2023-07-29T07:50:29;95247.91;;;17.61;100.00
26937;BME280;14495;48.116;11.676;2023-07-29T07:52:55;95228.16;;;17.83;100.00
26937;BME280;14495;48.116;11.676;2023-07-29T07:55:20;95221.25;;;18.00;100.00
26937;BME280;14495;48.116;11.676;2023-07-29T07:57:45;95210.59;;;18.28;100.00
26937;BME280;14495;48.116;11.676;2023-07-29T08:00:12;95211.81;;;18.60;100.00
26937;BME280;14495;48.116;11.676;2023-07-29T08:02:40;95215.88;;;18.72;100.00
26937;BME280;14495;48.116;11.676;2023-07-29T08:05:06;95219.69;;;18.78;100.00
26937;BME280;14495;48.116;11.676;2023-07-29T08:07:31;95226.03;;;18.59;100.00
26937;BME280;14495;48.116;11.676;2023-07-29T08:09:59;95227.41;;;18.71;100.00
26937;BME280;14495;48.116;11.676;2023-07-29T08:12:24;95227.59;;;18.69;100.00
26937;BME280;14495;48.116;11.676;2023-07-29T08:14:50;95220.84;;;18.75;100.00
26937;BME280;14495;48.116;11.676;2023-07-29T08:17:15;95219.72;;;19.04;100.00
26937;BME280;14495;48.116;11.676;2023-07-29T08:19:40;95225.41;;;19.17;100.00
26937;BME280;14495;48.116;11.676;2023-07-29T08:22:06;95227.16;;;19.43;100.00
26937;BME280;14495;48.116;11.676;2023-07-29T08:24:31;95221.91;;;19.51;100.00
26937;BME280;14495;48.116;11.676;2023-07-29T08:26:57;95218.53;;;19.83;100.00
26937;BME280;14495;48.116;11.676;2023-07-29T08:29:22;95218.38;;;19.93;100.00
26937;BME280;14495;48.116;11.676;2023-07-29T08:31:54;95215.72;;;19.93;100.00
26937;BME280;14495;48.116;11.676;2023-07-29T08:34:21;95225.66;;;19.83;100.00
26937;BME280;14495;48.116;11.676;2023-07-29T08:36:48;95221.44;;;20.23;100.00
26937;BME280;14495;48.116;11.676;2023-07-29T08:39:13;95219.91;;;20.45;100.00
26937;BME280;14495;48.116;11.676;2023-07-29T08:44:24;95226.38;;;20.59;100.00
26937;BME280;14495;48.116;11.676;2023-07-29T08:46:51;95222.09;;;20.50;100.00
26937;BME280;14495;48.116;11.676;2023-07-29T08:49:19;95221.75;;;20.28;100.00
26937;BME280;14495;48.116;11.676;2023-07-29T08:51:46;95223.38;;;20.21;100.00
26937;BME280;14495;48.116;11.676;2023-07-29T08:54:14;95224.06;;;20.31;100.00
26937;BME280;14495;48.116;11.676;2023-07-29T08:56:43;95219.41;;;20.41;100.00
26937;BME280;14495;48.116;11.676;2023-07-29T08:59:11;95215.63;;;20.60;100.00
26937;BME280;14495;48.116;11.676;2023-07-29T09:01:39;95221.75;;;20.69;100.00
26937;BME280;14495;48.116;11.676;2023-07-29T09:04:06;95213.75;;;20.94;100.00
26937;BME280;14495;48.116;11.676;2023-07-29T09:06:32;95208.09;;;21.05;100.00
26937;BME280;14495;48.116;11.676;2023-07-29T09:09:00;95208.69;;;21.23;100.00
26937;BME280;14495;48.116;11.676;2023-07-29T09:11:26;95213.16;;;21.71;100.00
26937;BME280;14495;48.116;11.676;2023-07-29T09:13:52;95214.25;;;21.53;100.00
26937;BME280;14495;48.116;11.676;2023-07-29T09:16:18;95225.53;;;21.87;100.00
26937;BME280;14495;48.116;11.676;2023-07-29T09:18:47;95222.63;;;21.96;100.00
26937;BME280;14495;48.116;11.676;2023-07-29T09:21:15;95219.94;;;22.05;100.00
26937;BME280;14495;48.116;11.676;2023-07-29T09:23:44;95235.75;;;22.29;100.00
26937;BME280;14495;48.116;11.676;2023-07-29T09:26:12;95223.91;;;22.55;100.00
26937;BME280;14495;48.116;11.676;2023-07-29T09:28:40;95225.84;;;22.61;100.00
26937;BME280;14495;48.116;11.676;2023-07-29T09:31:06;95222.53;;;22.97;100.00
26937;BME280;14495;48.116;11.676;2023-07-29T09:33:35;95213.75;;;22.58;100.00
26937;BME280;14495;48.116;11.676;2023-07-29T09:36:11;95221.09;;;23.09;100.00
26937;BME280;14495;48.116;11.676;2023-07-29T09:38:37;95218.78;;;23.66;100.00
26937;BME280;14495;48.116;11.676;2023-07-29T09:41:03;95212.53;;;23.59;100.00
26937;BME280;14495;48.116;11.676;2023-07-29T09:43:30;95222.53;;;23.86;100.00
26937;BME280;14495;48.116;11.676;2023-07-29T09:46:00;95218.09;;;23.93;100.00
26937;BME280;14495;48.116;11.676;2023-07-29T09:48:26;95208.09;;;24.17;100.00
26937;BME280;14495;48.116;11.676;2023-07-29T09:50:54;95216.38;;;23.86;100.00
26937;BME280;14495;48.116;11.676;2023-07-29T09:53:20;95212.25;;;24.05;100.00
26937;BME280;14495;48.116;11.676;2023-07-29T09:55:52;95218.25;;;24.28;100.00
26937;BME280;14495;48.116;11.676;2023-07-29T09:58:27;95208.38;;;24.50;100.00
26937;BME280;14495;48.116;11.676;2023-07-29T10:00:53;95202.63;;;25.03;100.00
26937;BME280;14495;48.116;11.676;2023-07-29T10:03:21;95207.59;;;25.06;100.00
26937;BME280;14495;48.116;11.676;2023-07-29T10:05:47;95192.94;;;24.67;100.00
26937;BME280;14495;48.116;11.676;2023-07-29T10:08:16;95192.81;;;24.54;100.00
26937;BME280;14495;48.116;11.676;2023-07-29T10:10:43;95201.16;;;24.66;100.00
26937;BME280;14495;48.116;11.676;2023-07-29T10:13:09;95194.31;;;24.63;100.00
26937;BME280;14495;48.116;11.676;2023-07-29T10:15:37;95197.13;;;24.77;100.00
26937;BME280;14495;48.116;11.676;2023-07-29T10:18:02;95184.78;;;25.11;100.00
26937;BME280;14495;48.116;11.676;2023-07-29T10:20:31;95183.09;;;25.03;100.00
26937;BME280;14495;48.116;11.676;2023-07-29T10:23:00;95185.47;;;25.19;100.00
26937;BME280;14495;48.116;11.676;2023-07-29T10:25:35;95180.06;;;25.13;100.00
26937;BME280;14495;48.116;11.676;2023-07-29T10:28:06;95189.97;;;24.84;100.00
26937;BME280;14495;48.116;11.676;2023-07-29T10:30:32;95182.78;;;24.56;100.00
26937;BME280;14495;48.116;11.676;2023-07-29T10:33:02;95176.59;;;25.47;100.00
26937;BME280;14495;48.116;11.676;2023-07-29T10:35:27;95175.63;;;25.68;100.00
26937;BME280;14495;48.116;11.676;2023-07-29T10:37:56;95174.94;;;26.08;100.00
26937;BME280;14495;48.116;11.676;2023-07-29T10:40:22;95167.38;;;25.56;100.00
26937;BME280;14495;48.116;11.676;2023-07-29T10:43:18;95163.50;;;25.72;100.00
26937;BME280;14495;48.116;11.676;2023-07-29T10:45:43;95160.94;;;25.44;100.00
26937;BME280;14495;48.116;11.676;2023-07-29T10:48:13;95167.56;;;25.55;100.00
26937;BME280;14495;48.116;11.676;2023-07-29T10:53:57;95153.16;;;25.56;100.00
26937;BME280;14495;48.116;11.676;2023-07-29T10:58:56;95165.59;;;25.77;100.00
26937;BME280;14495;48.116;11.676;2023-07-29T11:01:30;95135.09;;;25.23;100.00
26937;BME280;14495;48.116;11.676;2023-07-29T11:04:24;95151.06;;;24.75;100.00
26937;BME280;14495;48.116;11.676;2023-07-29T11:12:44;95139.31;;;25.39;100.00
26937;BME280;14495;48.116;11.676;2023-07-29T11:17:59;95144.84;;;25.92;100.00
26937;BME280;14495;48.116;11.676;2023-07-29T11:20:29;95141.78;;;26.02;100.00
26937;BME280;14495;48.116;11.676;2023-07-29T11:23:00;95145.91;;;26.11;100.00
26937;BME280;14495;48.116;11.676;2023-07-29T11:25:27;95148.19;;;26.21;100.00
26937;BME280;14495;48.116;11.676;2023-07-29T11:27:55;95145.94;;;26.78;100.00
26937;BME280;14495;48.116;11.676;2023-07-29T11:30:21;95153.38;;;26.83;100.00
26937;BME280;14495;48.116;11.676;2023-07-29T11:32:55;95152.47;;;26.02;100.00
26937;BME280;14495;48.116;11.676;2023-07-29T11:35:21;95156.84;;;24.78;100.00
26937;BME280;14495;48.116;11.676;2023-07-29T11:37:53;95150.00;;;24.19;100.00
26937;BME280;14495;48.116;11.676;2023-07-29T11:40:23;95164.63;;;23.50;100.00
26937;BME280;14495;48.116;11.676;2023-07-29T11:42:50;95175.22;;;22.99;100.00
26937;BME280;14495;48.116;11.676;2023-07-29T11:45:16;95173.81;;;23.99;100.00
26937;BME280;14495;48.116;11.676;2023-07-29T11:47:45;95169.53;;;24.69;100.00
26937;BME280;14495;48.116;11.676;2023-07-29T11:50:13;95172.63;;;25.36;100.00
26937;BME280;14495;48.116;11.676;2023-07-29T11:52:41;95161.56;;;25.46;100.00
26937;BME280;14495;48.116;11.676;2023-07-29T11:55:07;95169.53;;;25.88;95.57
26937;BME280;14495;48.116;11.676;2023-07-29T11:57:37;95163.84;;;25.56;93.31
26937;BME280;14495;48.116;11.676;2023-07-29T12:00:04;95161.03;;;25.77;92.67
26937;BME280;14495;48.116;11.676;2023-07-29T12:02:32;95164.03;;;25.48;92.31
26937;BME280;14495;48.116;11.676;2023-07-29T12:04:59;95169.38;;;26.09;97.08
26937;BME280;14495;48.116;11.676;2023-07-29T12:07:24;95159.34;;;26.25;96.54
26937;BME280;14495;48.116;11.676;2023-07-29T12:09:50;95144.91;;;26.52;91.31
26937;BME280;14495;48.116;11.676;2023-07-29T12:12:16;95144.09;;;26.58;88.36
26937;BME280;14495;48.116;11.676;2023-07-29T12:14:44;95135.22;;;26.91;89.34
26937;BME280;14495;48.116;11.676;2023-07-29T12:17:11;95136.84;;;26.92;90.21
26937;BME280;14495;48.116;11.676;2023-07-29T12:19:38;95138.25;;;27.28;84.93
26937;BME280;14495;48.116;11.676;2023-07-29T12:22:06;95132.38;;;27.45;84.53
26937;BME280;14495;48.116;11.676;2023-07-29T12:24:32;95132.34;;;27.58;84.02
26937;BME280;14495;48.116;11.676;2023-07-29T12:26:59;95128.13;;;27.69;84.13
26937;BME280;14495;48.116;11.676;2023-07-29T12:29:25;95122.50;;;27.84;83.87
26937;BME280;14495;48.116;11.676;2023-07-29T12:32:01;95110.72;;;28.17;83.34
26937;BME280;14495;48.116;11.676;2023-07-29T12:34:28;95116.88;;;28.24;84.56
26937;BME280;14495;48.116;11.676;2023-07-29T12:36:55;95128.97;;;28.65;78.90
26937;BME280;14495;48.116;11.676;2023-07-29T12:39:26;95110.16;;;28.40;78.94
26937;BME280;14495;48.116;11.676;2023-07-29T12:41:56;95118.84;;;27.19;79.89
26937;BME280;14495;48.116;11.676;2023-07-29T12:44:28;95105.97;;;26.63;84.55
26937;BME280;14495;48.116;11.676;2023-07-29T12:46:54;95109.28;;;26.45;87.87
26937;BME280;14495;48.116;11.676;2023-07-29T12:49:19;95101.44;;;25.97;90.93
26937;BME280;14495;48.116;11.676;2023-07-29T12:51:45;95103.63;;;25.87;90.63
26937;BME280;14495;48.116;11.676;2023-07-29T12:54:11;95096.81;;;25.64;92.38
26937;BME280;14495;48.116;11.676;2023-07-29T12:56:39;95096.28;;;25.27;93.73
26937;BME280;14495;48.116;11.676;2023-07-29T12:59:07;95108.84;;;24.98;98.85
26937;BME280;14495;48.116;11.676;2023-07-29T13:01:33;95145.84;;;24.38;100.00
26937;BME280;14495;48.116;11.676;2023-07-29T13:03:58;95166.44;;;23.65;100.00